Sky Vita — V2PU8 — position and weather

sailwx.info

Track history (hours):
 
Tides and Currents Weather Stations Pressure Air Temp Water Temp Dewpoint Dewpoint Depression Visibility Wind Speed Wind Dir Waves Ship Positions

Sky Vita

Last reported at 2017-Oct-15 04:27 UTC. Time now 2017-Oct-17 02:21 UTC.
Position N 56°44' E 010°59'.

Length 88 m; draft 5.6 m.

Type: Cargo ship. MMSI: 304768000.

Date/timePositionNaut miles runAvg speedWind from/ knotsBaromVisibWave heightAir tempDewpointWater temp
2017-Oct-15 04:27N 56°44' E 010°59'24 8.1
2017-Oct-15 01:29N 57°07' E 010°46'14 9.4
2017-Oct-14 23:57N 57°21' E 010°42'4 9.3
2017-Oct-14 23:30N 57°25' E 010°42'5 9.1
2017-Oct-14 22:59N 57°30' E 010°43'4 8.8
2017-Oct-14 22:30N 57°34' E 010°43'4 8.7
2017-Oct-14 22:00N 57°39' E 010°44'4 8.6
2017-Oct-14 21:30N 57°43' E 010°45'4 7.7
2017-Oct-14 21:00N 57°47' E 010°42'610.6
2017-Oct-14 20:28N 57°47' E 010°31'4 9.6
2017-Oct-14 20:00N 57°47' E 010°23'18 9.2
2017-Oct-14 18:05N 57°49' E 009°50'1 9.6
2017-Oct-14 17:58N 57°49' E 009°48'5 9.6
2017-Oct-14 17:29N 57°50' E 009°39'5 9.8
2017-Oct-14 17:00N 57°51' E 009°30'5 9.8
2017-Oct-14 16:30N 57°51' E 009°22'5 9.6
2017-Oct-14 15:58N 57°51' E 009°12'5 9.4
2017-Oct-14 15:27N 57°52' E 009°03'4 9.2
2017-Oct-14 14:58N 57°52' E 008°54'16 8.6
2017-Oct-14 13:04N 57°52' E 008°24'1 8.1
2017-Oct-14 13:00N 57°52' E 008°22'4 8.0
2017-Oct-14 12:30N 57°53' E 008°15'4 7.7
2017-Oct-14 12:00N 57°54' E 008°08'4 7.2
2017-Oct-14 11:30N 57°54' E 008°01'4 7.3
2017-Oct-14 11:00N 57°54' E 007°54'4 7.6
2017-Oct-14 10:29N 57°54' E 007°47'4 7.5
2017-Oct-14 10:00N 57°55' E 007°40'4 7.9
2017-Oct-14 09:29N 57°55' E 007°33'4 8.3
2017-Oct-14 09:00N 57°56' E 007°25'4 8.3
2017-Oct-14 08:30N 57°56' E 007°17'4 8.5
2017-Oct-14 08:00N 57°56' E 007°09'4 8.4
2017-Oct-14 07:30N 57°57' E 007°01'4 8.1
2017-Oct-14 07:00N 57°57' E 006°54'4 8.3
2017-Oct-14 06:30N 57°59' E 006°46'4 8.4
2017-Oct-14 06:00N 58°00' E 006°39'4 7.8
2017-Oct-14 05:30N 58°02' E 006°32'4 8.2
2017-Oct-14 05:00N 58°04' E 006°26'4 7.2
2017-Oct-14 04:30N 58°06' E 006°21'4 7.2
2017-Oct-14 04:00N 58°09' E 006°16'4 7.7
2017-Oct-14 03:30N 58°12' E 006°12'4 7.6
2017-Oct-14 03:00N 58°14' E 006°06'4 7.5
2017-Oct-14 02:30N 58°17' E 006°01'4 7.5
2017-Oct-14 02:00N 58°19' E 005°55'4 7.4
2017-Oct-14 01:30N 58°22' E 005°50'4 7.2
2017-Oct-14 01:00N 58°24' E 005°45'4 7.2
2017-Oct-14 00:30N 58°27' E 005°40'4 7.3
2017-Oct-14 00:00N 58°29' E 005°35'4 7.5
2017-Oct-13 23:30N 58°32' E 005°31'4 7.5
2017-Oct-13 23:00N 58°36' E 005°28'4 7.8
2017-Oct-13 22:30N 58°40' E 005°26'4 7.3
2017-Oct-13 22:01N 58°43' E 005°24'3 6.7
2017-Oct-13 21:30N 58°46' E 005°23'3 6.8
2017-Oct-13 21:00N 58°50' E 005°26'3 6.9
2017-Oct-13 20:30N 58°52' E 005°31'4 7.7
2017-Oct-13 20:00N 58°56' E 005°32'4 8.4
2017-Oct-13 19:30N 58°60' E 005°33'3 6.4
2017-Oct-13 19:00N 59°03' E 005°35'4 7.6
2017-Oct-13 18:30N 59°02' E 005°42'4 7.9
2017-Oct-13 18:00N 59°01' E 005°50'5 9.4
2017-Oct-13 17:30N 58°58' E 005°57'5 9.3
2017-Oct-13 17:00N 58°54' E 006°03'4 7.7
2017-Oct-13 16:30N 58°52' E 006°09'0 0.0
2017-Oct-13 15:33N 58°52' E 006°09'0 0.0
2017-Oct-13 15:02N 58°52' E 006°09'0 0.0
2017-Oct-13 14:59N 58°52' E 006°09'0 0.0
2017-Oct-13 14:26N 58°52' E 006°09'0 0.0
2017-Oct-13 13:53N 58°52' E 006°09'0 0.0
2017-Oct-13 13:29N 58°52' E 006°09'0 0.0
2017-Oct-13 12:59N 58°52' E 006°09'0 0.0
2017-Oct-13 12:22N 58°52' E 006°09'0 0.0
2017-Oct-13 11:58N 58°52' E 006°09'0 0.0
2017-Oct-13 11:28N 58°52' E 006°09'0 0.0
2017-Oct-13 10:09N 58°52' E 006°09'0 0.1
2017-Oct-13 10:00N 58°52' E 006°09'0 0.0
2017-Oct-13 09:30N 58°52' E 006°09'0 0.0
2017-Oct-13 09:00N 58°52' E 006°09'0 0.0
2017-Oct-13 08:30N 58°52' E 006°09'0 0.0
2017-Oct-13 07:11N 58°52' E 006°09'0 0.0
2017-Oct-13 06:50N 58°52' E 006°09'0 0.0
2017-Oct-13 06:26N 58°52' E 006°09'0 0.0
2017-Oct-13 05:55N 58°52' E 006°09'0 0.0
2017-Oct-13 05:25N 58°52' E 006°09'0 0.0
2017-Oct-13 05:00N 58°52' E 006°09'0 0.0
2017-Oct-13 03:46N 58°52' E 006°09'0 0.0
2017-Oct-13 03:22N 58°52' E 006°09'0 0.0
2017-Oct-13 01:03N 58°52' E 006°09'0 0.0
2017-Oct-13 00:50N 58°52' E 006°09'0 0.0
2017-Oct-13 00:29N 58°52' E 006°09'0 0.0
2017-Oct-12 22:07N 58°52' E 006°09'0 0.0
2017-Oct-12 21:45N 58°52' E 006°09'0 0.0
2017-Oct-12 21:29N 58°52' E 006°09'2 3.5
2017-Oct-12 21:00N 58°53' E 006°06'510.0
2017-Oct-12 20:30N 58°56' E 005°60'510.2
2017-Oct-12 20:00N 58°59' E 005°52'5 9.2
2017-Oct-12 19:30N 59°02' E 005°44'5 9.0
2017-Oct-12 19:00N 59°02' E 005°35'4 7.6
2017-Oct-12 18:30N 58°59' E 005°33'4 8.5
2017-Oct-12 18:00N 58°55' E 005°33'4 8.1
2017-Oct-12 17:30N 58°51' E 005°30'3 6.4
2017-Oct-12 17:00N 58°48' E 005°26'4 7.4
2017-Oct-12 16:30N 58°46' E 005°21'4 8.0
2017-Oct-12 16:00N 58°43' E 005°14'4 8.3
2017-Oct-12 15:30N 58°41' E 005°08'3 6.3
2017-Oct-12 15:00N 58°38' E 005°08'3 6.3
2017-Oct-12 14:30N 58°35' E 005°09'281 7.2
2017-Oct-10 23:19N 56°12' W 002°21'3 9.1
2017-Oct-10 23:00N 56°10' W 002°25'4 8.7
2017-Oct-10 22:30N 56°08' W 002°32'5 9.4
2017-Oct-10 22:00N 56°06' W 002°40'510.0
2017-Oct-10 21:30N 56°05' W 002°48'510.2
2017-Oct-10 21:00N 56°04' W 002°57'510.0
2017-Oct-10 20:30N 56°01' W 003°05'4 7.8
2017-Oct-10 20:01N 55°59' W 003°11'0 0.7
2017-Oct-10 19:30N 55°59' W 003°11'0 0.8
2017-Oct-10 18:58N 55°59' W 003°10'0 0.0
2017-Oct-10 18:28N 55°59' W 003°10'0 0.0
2017-Oct-10 18:00N 55°59' W 003°10'0 0.0
2017-Oct-10 17:30N 55°59' W 003°10'0 0.0
2017-Oct-10 17:00N 55°59' W 003°10'0 0.0
2017-Oct-10 16:30N 55°59' W 003°10'0 0.0
2017-Oct-10 16:00N 55°59' W 003°10'0 0.0
2017-Oct-10 15:29N 55°59' W 003°10'0 0.0
2017-Oct-10 14:59N 55°59' W 003°10'0 0.0
2017-Oct-10 13:59N 55°59' W 003°10'0 0.0
2017-Oct-10 13:28N 55°59' W 003°10'0 0.0
2017-Oct-10 12:58N 55°59' W 003°10'0 0.0
2017-Oct-10 12:28N 55°59' W 003°10'0 0.0
2017-Oct-10 11:58N 55°59' W 003°10'0 0.0
2017-Oct-10 11:28N 55°59' W 003°10'0 0.0
2017-Oct-10 11:00N 55°59' W 003°10'0 0.0
2017-Oct-10 10:30N 55°59' W 003°10'0 0.0
2017-Oct-10 10:00N 55°59' W 003°10'0 0.0
2017-Oct-10 09:30N 55°59' W 003°10'0 0.0
2017-Oct-10 09:00N 55°59' W 003°10'0 0.0
2017-Oct-10 08:29N 55°59' W 003°10'0 0.0
2017-Oct-10 07:59N 55°59' W 003°10'0 0.0
2017-Oct-10 07:29N 55°59' W 003°10'0 0.0
2017-Oct-10 06:59N 55°59' W 003°10'0 0.0
2017-Oct-10 06:25N 55°59' W 003°10'0 0.0
2017-Oct-10 05:58N 55°59' W 003°10'0 0.0
2017-Oct-10 05:28N 55°59' W 003°10'0 0.0
2017-Oct-10 04:58N 55°59' W 003°10'0 0.0
2017-Oct-10 04:28N 55°59' W 003°10'0 0.0
2017-Oct-10 04:00N 55°59' W 003°10'0 0.0
2017-Oct-10 03:30N 55°59' W 003°10'0 0.0
2017-Oct-10 03:00N 55°59' W 003°10'0 0.0
2017-Oct-10 02:30N 55°59' W 003°10'0 0.0
2017-Oct-10 01:59N 55°59' W 003°10'0 0.0
2017-Oct-10 01:29N 55°59' W 003°10'0 0.0
2017-Oct-10 00:59N 55°59' W 003°10'0 0.0
2017-Oct-10 00:29N 55°59' W 003°10'0 0.0
2017-Oct-09 23:59N 55°59' W 003°10'0 0.0
2017-Oct-09 23:28N 55°59' W 003°10'0 0.0
2017-Oct-09 22:58N 55°59' W 003°10'0 0.0
2017-Oct-09 22:28N 55°59' W 003°10'0 0.0
2017-Oct-09 21:58N 55°59' W 003°10'0 0.0
2017-Oct-09 21:28N 55°59' W 003°10'0 0.0
2017-Oct-09 21:00N 55°59' W 003°10'0 0.0
2017-Oct-09 20:30N 55°59' W 003°10'0 0.0
2017-Oct-09 20:00N 55°59' W 003°10'0 0.0
2017-Oct-09 19:30N 55°59' W 003°10'0 0.0
2017-Oct-09 18:59N 55°59' W 003°10'0 0.0
2017-Oct-09 18:29N 55°59' W 003°10'0 0.0
2017-Oct-09 17:59N 55°59' W 003°10'0 0.0
2017-Oct-09 17:29N 55°59' W 003°10'0 0.0
2017-Oct-09 16:59N 55°59' W 003°10'0 0.0
2017-Oct-09 16:28N 55°59' W 003°10'0 0.0
2017-Oct-09 15:58N 55°59' W 003°10'0 0.0
2017-Oct-09 15:28N 55°59' W 003°10'0 0.0
2017-Oct-09 14:58N 55°59' W 003°10'0 0.0
2017-Oct-09 14:27N 55°59' W 003°10'0 0.0
2017-Oct-09 14:00N 55°59' W 003°10'0 0.0
2017-Oct-09 13:30N 55°59' W 003°10'0 0.0
2017-Oct-09 13:00N 55°59' W 003°10'0 0.0
2017-Oct-09 12:30N 55°59' W 003°10'0 0.0
2017-Oct-09 11:59N 55°59' W 003°10'0 0.0
2017-Oct-09 11:29N 55°59' W 003°10'0 0.0
2017-Oct-09 10:59N 55°59' W 003°10'0 0.0
2017-Oct-09 10:26N 55°59' W 003°10'0 0.0
2017-Oct-09 09:59N 55°59' W 003°10'0 0.0
2017-Oct-09 09:29N 55°59' W 003°10'0 0.1
2017-Oct-09 09:00N 55°59' W 003°10'0 0.9
2017-Oct-09 08:30N 55°59' W 003°11'0 0.9
2017-Oct-09 08:00N 55°60' W 003°11'3 6.3
2017-Oct-09 07:30N 56°01' W 003°06'3 6.8
2017-Oct-09 07:00N 56°03' W 003°01'4 8.0
2017-Oct-09 06:30N 56°04' W 002°54'4 8.0
2017-Oct-09 06:00N 56°06' W 002°48'4 8.0
2017-Oct-09 05:30N 56°07' W 002°41'4 8.6
2017-Oct-09 05:00N 56°09' W 002°34'4 8.9
2017-Oct-09 04:30N 56°09' W 002°26'4 8.8
2017-Oct-09 04:00N 56°10' W 002°18'4 8.9
2017-Oct-09 03:30N 56°11' W 002°10'5 9.0
2017-Oct-09 03:00N 56°11' W 002°02'  
2017-Oct-06 20:39N 57°48' E 010°40'1 7.7
2017-Oct-06 20:30N 57°48' E 010°42'4 8.2
2017-Oct-06 20:00N 57°46' E 010°49'4 8.7
2017-Oct-06 19:29N 57°43' E 010°55'4 8.5
2017-Oct-06 19:00N 57°40' E 011°01'4 8.5
2017-Oct-06 18:30N 57°38' E 011°08'4 8.4
2017-Oct-06 18:00N 57°35' E 011°13'4 7.7
2017-Oct-06 17:30N 57°32' E 011°18'4 7.7
2017-Oct-06 17:00N 57°30' E 011°24'3 6.9
2017-Oct-06 16:30N 57°27' E 011°28'3 6.8
2017-Oct-06 16:00N 57°25' E 011°33'3 6.8
2017-Oct-06 15:30N 57°22' E 011°37'4 7.0
2017-Oct-06 15:00N 57°20' E 011°42'4 7.1
2017-Oct-06 14:30N 57°18' E 011°47'3 7.0
2017-Oct-06 14:00N 57°15' E 011°51'72 7.2
2017-Oct-06 03:57N 56°07' E 012°34'3 6.5
2017-Oct-06 03:30N 56°05' E 012°37'3 6.1
2017-Oct-06 03:00N 56°02' E 012°40'3 6.0
2017-Oct-06 02:30N 55°59' E 012°42'3 6.3
2017-Oct-06 02:00N 55°56' E 012°44'3 6.5
2017-Oct-06 01:30N 55°53' E 012°44'3 6.7
2017-Oct-06 01:00N 55°50' E 012°43'4 7.6
2017-Oct-06 00:30N 55°46' E 012°42'4 7.7
2017-Oct-06 00:00N 55°42' E 012°41'4 7.6
2017-Oct-05 23:30N 55°38' E 012°42'4 7.2
2017-Oct-05 23:00N 55°35' E 012°42'4 7.4
2017-Oct-05 22:30N 55°31' E 012°43'4 8.1
2017-Oct-05 22:00N 55°27' E 012°42'4 7.3
2017-Oct-05 21:30N 55°23' E 012°42'4 7.7
2017-Oct-05 21:00N 55°19' E 012°41'4 7.2
2017-Oct-05 20:30N 55°17' E 012°47'4 7.4
2017-Oct-05 20:00N 55°16' E 012°53'4 7.0
2017-Oct-05 19:30N 55°16' E 012°59'4 7.2
2017-Oct-05 19:00N 55°16' E 013°05'4 7.3
2017-Oct-05 18:24N 55°15' E 013°13'34 7.7
2017-Oct-05 13:59N 55°14' E 014°13'4 7.8
2017-Oct-05 13:25N 55°16' E 014°19'3 8.2
2017-Oct-05 13:00N 55°19' E 014°23'6 8.3
2017-Oct-05 12:15N 55°24' E 014°30'5 8.3
2017-Oct-05 11:40N 55°27' E 014°35'2 8.1
2017-Oct-05 11:25N 55°29' E 014°38'3 8.1
2017-Oct-05 11:00N 55°30' E 014°43'5 7.9
2017-Oct-05 10:26N 55°32' E 014°50'4 7.8
2017-Oct-05 09:58N 55°34' E 014°56'7 7.7
2017-Oct-05 09:03N 55°37' E 015°07'6 7.8
2017-Oct-05 08:13N 55°40' E 015°17'2 7.3
2017-Oct-05 08:00N 55°41' E 015°19'4 7.4
2017-Oct-05 07:30N 55°43' E 015°25'3 6.9
2017-Oct-05 07:00N 55°45' E 015°30'3 6.6
2017-Oct-05 06:30N 55°46' E 015°35'3 6.1
2017-Oct-05 06:00N 55°48' E 015°40'3 5.8
2017-Oct-05 05:30N 55°49' E 015°44'3 5.5
2017-Oct-05 05:00N 55°51' E 015°49'3 5.2
2017-Oct-05 04:30N 55°52' E 015°53'  
Track history (hours):
 
Tides and Currents Weather Stations Pressure Air Temp Water Temp Dewpoint Dewpoint Depression Visibility Wind Speed Wind Dir Waves Ship Positions

Sky Vita

Last reported at 2017-Oct-15 04:27 UTC. Time now 2017-Oct-17 02:21 UTC.
Position N 56°44' E 010°59'.

Length 88 m; draft 5.6 m.

Type: Cargo ship. MMSI: 304768000.

Date/timePositionNaut miles runAvg speedWind from/ knotsBaromVisibWave heightAir tempDewpointWater temp
2017-Oct-15 04:27N 56°44' E 010°59'24 8.1
2017-Oct-15 01:29N 57°07' E 010°46'14 9.4
2017-Oct-14 23:57N 57°21' E 010°42'4 9.3
2017-Oct-14 23:30N 57°25' E 010°42'5 9.1
2017-Oct-14 22:59N 57°30' E 010°43'4 8.8
2017-Oct-14 22:30N 57°34' E 010°43'4 8.7
2017-Oct-14 22:00N 57°39' E 010°44'4 8.6
2017-Oct-14 21:30N 57°43' E 010°45'4 7.7
2017-Oct-14 21:00N 57°47' E 010°42'610.6
2017-Oct-14 20:28N 57°47' E 010°31'4 9.6
2017-Oct-14 20:00N 57°47' E 010°23'18 9.2
2017-Oct-14 18:05N 57°49' E 009°50'1 9.6
2017-Oct-14 17:58N 57°49' E 009°48'5 9.6
2017-Oct-14 17:29N 57°50' E 009°39'5 9.8
2017-Oct-14 17:00N 57°51' E 009°30'5 9.8
2017-Oct-14 16:30N 57°51' E 009°22'5 9.6
2017-Oct-14 15:58N 57°51' E 009°12'5 9.4
2017-Oct-14 15:27N 57°52' E 009°03'4 9.2
2017-Oct-14 14:58N 57°52' E 008°54'16 8.6
2017-Oct-14 13:04N 57°52' E 008°24'1 8.1
2017-Oct-14 13:00N 57°52' E 008°22'4 8.0
2017-Oct-14 12:30N 57°53' E 008°15'4 7.7
2017-Oct-14 12:00N 57°54' E 008°08'4 7.2
2017-Oct-14 11:30N 57°54' E 008°01'4 7.3
2017-Oct-14 11:00N 57°54' E 007°54'4 7.6
2017-Oct-14 10:29N 57°54' E 007°47'4 7.5
2017-Oct-14 10:00N 57°55' E 007°40'4 7.9
2017-Oct-14 09:29N 57°55' E 007°33'4 8.3
2017-Oct-14 09:00N 57°56' E 007°25'4 8.3
2017-Oct-14 08:30N 57°56' E 007°17'4 8.5
2017-Oct-14 08:00N 57°56' E 007°09'4 8.4
2017-Oct-14 07:30N 57°57' E 007°01'4 8.1
2017-Oct-14 07:00N 57°57' E 006°54'4 8.3
2017-Oct-14 06:30N 57°59' E 006°46'4 8.4
2017-Oct-14 06:00N 58°00' E 006°39'4 7.8
2017-Oct-14 05:30N 58°02' E 006°32'4 8.2
2017-Oct-14 05:00N 58°04' E 006°26'4 7.2
2017-Oct-14 04:30N 58°06' E 006°21'4 7.2
2017-Oct-14 04:00N 58°09' E 006°16'4 7.7
2017-Oct-14 03:30N 58°12' E 006°12'4 7.6
2017-Oct-14 03:00N 58°14' E 006°06'4 7.5
2017-Oct-14 02:30N 58°17' E 006°01'4 7.5
2017-Oct-14 02:00N 58°19' E 005°55'4 7.4
2017-Oct-14 01:30N 58°22' E 005°50'4 7.2
2017-Oct-14 01:00N 58°24' E 005°45'4 7.2
2017-Oct-14 00:30N 58°27' E 005°40'4 7.3
2017-Oct-14 00:00N 58°29' E 005°35'4 7.5
2017-Oct-13 23:30N 58°32' E 005°31'4 7.5
2017-Oct-13 23:00N 58°36' E 005°28'4 7.8
2017-Oct-13 22:30N 58°40' E 005°26'4 7.3
2017-Oct-13 22:01N 58°43' E 005°24'3 6.7
2017-Oct-13 21:30N 58°46' E 005°23'3 6.8
2017-Oct-13 21:00N 58°50' E 005°26'3 6.9
2017-Oct-13 20:30N 58°52' E 005°31'4 7.7
2017-Oct-13 20:00N 58°56' E 005°32'4 8.4
2017-Oct-13 19:30N 58°60' E 005°33'3 6.4
2017-Oct-13 19:00N 59°03' E 005°35'4 7.6
2017-Oct-13 18:30N 59°02' E 005°42'4 7.9
2017-Oct-13 18:00N 59°01' E 005°50'5 9.4
2017-Oct-13 17:30N 58°58' E 005°57'5 9.3
2017-Oct-13 17:00N 58°54' E 006°03'4 7.7
2017-Oct-13 16:30N 58°52' E 006°09'0 0.0
2017-Oct-13 15:33N 58°52' E 006°09'0 0.0
2017-Oct-13 15:02N 58°52' E 006°09'0 0.0
2017-Oct-13 14:59N 58°52' E 006°09'0 0.0
2017-Oct-13 14:26N 58°52' E 006°09'0 0.0
2017-Oct-13 13:53N 58°52' E 006°09'0 0.0
2017-Oct-13 13:29N 58°52' E 006°09'0 0.0
2017-Oct-13 12:59N 58°52' E 006°09'0 0.0
2017-Oct-13 12:22N 58°52' E 006°09'0 0.0
2017-Oct-13 11:58N 58°52' E 006°09'0 0.0
2017-Oct-13 11:28N 58°52' E 006°09'0 0.0
2017-Oct-13 10:09N 58°52' E 006°09'0 0.1
2017-Oct-13 10:00N 58°52' E 006°09'0 0.0
2017-Oct-13 09:30N 58°52' E 006°09'0 0.0
2017-Oct-13 09:00N 58°52' E 006°09'0 0.0
2017-Oct-13 08:30N 58°52' E 006°09'0 0.0
2017-Oct-13 07:11N 58°52' E 006°09'0 0.0
2017-Oct-13 06:50N 58°52' E 006°09'0 0.0
2017-Oct-13 06:26N 58°52' E 006°09'0 0.0
2017-Oct-13 05:55N 58°52' E 006°09'0 0.0
2017-Oct-13 05:25N 58°52' E 006°09'0 0.0
2017-Oct-13 05:00N 58°52' E 006°09'0 0.0
2017-Oct-13 03:46N 58°52' E 006°09'0 0.0
2017-Oct-13 03:22N 58°52' E 006°09'0 0.0
2017-Oct-13 01:03N 58°52' E 006°09'0 0.0
2017-Oct-13 00:50N 58°52' E 006°09'0 0.0
2017-Oct-13 00:29N 58°52' E 006°09'0 0.0
2017-Oct-12 22:07N 58°52' E 006°09'0 0.0
2017-Oct-12 21:45N 58°52' E 006°09'0 0.0
2017-Oct-12 21:29N 58°52' E 006°09'2 3.5
2017-Oct-12 21:00N 58°53' E 006°06'510.0
2017-Oct-12 20:30N 58°56' E 005°60'510.2
2017-Oct-12 20:00N 58°59' E 005°52'5 9.2
2017-Oct-12 19:30N 59°02' E 005°44'5 9.0
2017-Oct-12 19:00N 59°02' E 005°35'4 7.6
2017-Oct-12 18:30N 58°59' E 005°33'4 8.5
2017-Oct-12 18:00N 58°55' E 005°33'4 8.1
2017-Oct-12 17:30N 58°51' E 005°30'3 6.4
2017-Oct-12 17:00N 58°48' E 005°26'4 7.4
2017-Oct-12 16:30N 58°46' E 005°21'4 8.0
2017-Oct-12 16:00N 58°43' E 005°14'4 8.3
2017-Oct-12 15:30N 58°41' E 005°08'3 6.3
2017-Oct-12 15:00N 58°38' E 005°08'3 6.3
2017-Oct-12 14:30N 58°35' E 005°09'281 7.2
2017-Oct-10 23:19N 56°12' W 002°21'3 9.1
2017-Oct-10 23:00N 56°10' W 002°25'4 8.7
2017-Oct-10 22:30N 56°08' W 002°32'5 9.4
2017-Oct-10 22:00N 56°06' W 002°40'510.0
2017-Oct-10 21:30N 56°05' W 002°48'510.2
2017-Oct-10 21:00N 56°04' W 002°57'510.0
2017-Oct-10 20:30N 56°01' W 003°05'4 7.8
2017-Oct-10 20:01N 55°59' W 003°11'0 0.7
2017-Oct-10 19:30N 55°59' W 003°11'0 0.8
2017-Oct-10 18:58N 55°59' W 003°10'0 0.0
2017-Oct-10 18:28N 55°59' W 003°10'0 0.0
2017-Oct-10 18:00N 55°59' W 003°10'0 0.0
2017-Oct-10 17:30N 55°59' W 003°10'0 0.0
2017-Oct-10 17:00N 55°59' W 003°10'0 0.0
2017-Oct-10 16:30N 55°59' W 003°10'0 0.0
2017-Oct-10 16:00N 55°59' W 003°10'0 0.0
2017-Oct-10 15:29N 55°59' W 003°10'0 0.0
2017-Oct-10 14:59N 55°59' W 003°10'0 0.0
2017-Oct-10 13:59N 55°59' W 003°10'0 0.0
2017-Oct-10 13:28N 55°59' W 003°10'0 0.0
2017-Oct-10 12:58N 55°59' W 003°10'0 0.0
2017-Oct-10 12:28N 55°59' W 003°10'0 0.0
2017-Oct-10 11:58N 55°59' W 003°10'0 0.0
2017-Oct-10 11:28N 55°59' W 003°10'0 0.0
2017-Oct-10 11:00N 55°59' W 003°10'0 0.0
2017-Oct-10 10:30N 55°59' W 003°10'0 0.0
2017-Oct-10 10:00N 55°59' W 003°10'0 0.0
2017-Oct-10 09:30N 55°59' W 003°10'0 0.0
2017-Oct-10 09:00N 55°59' W 003°10'0 0.0
2017-Oct-10 08:29N 55°59' W 003°10'0 0.0
2017-Oct-10 07:59N 55°59' W 003°10'0 0.0
2017-Oct-10 07:29N 55°59' W 003°10'0 0.0
2017-Oct-10 06:59N 55°59' W 003°10'0 0.0
2017-Oct-10 06:25N 55°59' W 003°10'0 0.0
2017-Oct-10 05:58N 55°59' W 003°10'0 0.0
2017-Oct-10 05:28N 55°59' W 003°10'0 0.0
2017-Oct-10 04:58N 55°59' W 003°10'0 0.0
2017-Oct-10 04:28N 55°59' W 003°10'0 0.0
2017-Oct-10 04:00N 55°59' W 003°10'0 0.0
2017-Oct-10 03:30N 55°59' W 003°10'0 0.0
2017-Oct-10 03:00N 55°59' W 003°10'0 0.0
2017-Oct-10 02:30N 55°59' W 003°10'0 0.0
2017-Oct-10 01:59N 55°59' W 003°10'0 0.0
2017-Oct-10 01:29N 55°59' W 003°10'0 0.0
2017-Oct-10 00:59N 55°59' W 003°10'0 0.0
2017-Oct-10 00:29N 55°59' W 003°10'0 0.0
2017-Oct-09 23:59N 55°59' W 003°10'0 0.0
2017-Oct-09 23:28N 55°59' W 003°10'0 0.0
2017-Oct-09 22:58N 55°59' W 003°10'0 0.0
2017-Oct-09 22:28N 55°59' W 003°10'0 0.0
2017-Oct-09 21:58N 55°59' W 003°10'0 0.0
2017-Oct-09 21:28N 55°59' W 003°10'0 0.0
2017-Oct-09 21:00N 55°59' W 003°10'0 0.0
2017-Oct-09 20:30N 55°59' W 003°10'0 0.0
2017-Oct-09 20:00N 55°59' W 003°10'0 0.0
2017-Oct-09 19:30N 55°59' W 003°10'0 0.0
2017-Oct-09 18:59N 55°59' W 003°10'0 0.0
2017-Oct-09 18:29N 55°59' W 003°10'0 0.0
2017-Oct-09 17:59N 55°59' W 003°10'0 0.0
2017-Oct-09 17:29N 55°59' W 003°10'0 0.0
2017-Oct-09 16:59N 55°59' W 003°10'0 0.0
2017-Oct-09 16:28N 55°59' W 003°10'0 0.0
2017-Oct-09 15:58N 55°59' W 003°10'0 0.0
2017-Oct-09 15:28N 55°59' W 003°10'0 0.0
2017-Oct-09 14:58N 55°59' W 003°10'0 0.0
2017-Oct-09 14:27N 55°59' W 003°10'0 0.0
2017-Oct-09 14:00N 55°59' W 003°10'0 0.0
2017-Oct-09 13:30N 55°59' W 003°10'0 0.0
2017-Oct-09 13:00N 55°59' W 003°10'0 0.0
2017-Oct-09 12:30N 55°59' W 003°10'0 0.0
2017-Oct-09 11:59N 55°59' W 003°10'0 0.0
2017-Oct-09 11:29N 55°59' W 003°10'0 0.0
2017-Oct-09 10:59N 55°59' W 003°10'0 0.0
2017-Oct-09 10:26N 55°59' W 003°10'0 0.0
2017-Oct-09 09:59N 55°59' W 003°10'0 0.0
2017-Oct-09 09:29N 55°59' W 003°10'0 0.1
2017-Oct-09 09:00N 55°59' W 003°10'0 0.9
2017-Oct-09 08:30N 55°59' W 003°11'0 0.9
2017-Oct-09 08:00N 55°60' W 003°11'3 6.3
2017-Oct-09 07:30N 56°01' W 003°06'3 6.8
2017-Oct-09 07:00N 56°03' W 003°01'4 8.0
2017-Oct-09 06:30N 56°04' W 002°54'4 8.0
2017-Oct-09 06:00N 56°06' W 002°48'4 8.0
2017-Oct-09 05:30N 56°07' W 002°41'4 8.6
2017-Oct-09 05:00N 56°09' W 002°34'4 8.9
2017-Oct-09 04:30N 56°09' W 002°26'4 8.8
2017-Oct-09 04:00N 56°10' W 002°18'4 8.9
2017-Oct-09 03:30N 56°11' W 002°10'5 9.0
2017-Oct-09 03:00N 56°11' W 002°02'  
2017-Oct-06 20:39N 57°48' E 010°40'1 7.7
2017-Oct-06 20:30N 57°48' E 010°42'4 8.2
2017-Oct-06 20:00N 57°46' E 010°49'4 8.7
2017-Oct-06 19:29N 57°43' E 010°55'4 8.5
2017-Oct-06 19:00N 57°40' E 011°01'4 8.5
2017-Oct-06 18:30N 57°38' E 011°08'4 8.4
2017-Oct-06 18:00N 57°35' E 011°13'4 7.7
2017-Oct-06 17:30N 57°32' E 011°18'4 7.7
2017-Oct-06 17:00N 57°30' E 011°24'3 6.9
2017-Oct-06 16:30N 57°27' E 011°28'3 6.8
2017-Oct-06 16:00N 57°25' E 011°33'3 6.8
2017-Oct-06 15:30N 57°22' E 011°37'4 7.0
2017-Oct-06 15:00N 57°20' E 011°42'4 7.1
2017-Oct-06 14:30N 57°18' E 011°47'3 7.0
2017-Oct-06 14:00N 57°15' E 011°51'72 7.2
2017-Oct-06 03:57N 56°07' E 012°34'3 6.5
2017-Oct-06 03:30N 56°05' E 012°37'3 6.1
2017-Oct-06 03:00N 56°02' E 012°40'3 6.0
2017-Oct-06 02:30N 55°59' E 012°42'3 6.3
2017-Oct-06 02:00N 55°56' E 012°44'3 6.5
2017-Oct-06 01:30N 55°53' E 012°44'3 6.7
2017-Oct-06 01:00N 55°50' E 012°43'4 7.6
2017-Oct-06 00:30N 55°46' E 012°42'4 7.7
2017-Oct-06 00:00N 55°42' E 012°41'4 7.6
2017-Oct-05 23:30N 55°38' E 012°42'4 7.2
2017-Oct-05 23:00N 55°35' E 012°42'4 7.4
2017-Oct-05 22:30N 55°31' E 012°43'4 8.1
2017-Oct-05 22:00N 55°27' E 012°42'4 7.3
2017-Oct-05 21:30N 55°23' E 012°42'4 7.7
2017-Oct-05 21:00N 55°19' E 012°41'4 7.2
2017-Oct-05 20:30N 55°17' E 012°47'4 7.4
2017-Oct-05 20:00N 55°16' E 012°53'4 7.0
2017-Oct-05 19:30N 55°16' E 012°59'4 7.2
2017-Oct-05 19:00N 55°16' E 013°05'4 7.3
2017-Oct-05 18:24N 55°15' E 013°13'34 7.7
2017-Oct-05 13:59N 55°14' E 014°13'4 7.8
2017-Oct-05 13:25N 55°16' E 014°19'3 8.2
2017-Oct-05 13:00N 55°19' E 014°23'6 8.3
2017-Oct-05 12:15N 55°24' E 014°30'5 8.3
2017-Oct-05 11:40N 55°27' E 014°35'2 8.1
2017-Oct-05 11:25N 55°29' E 014°38'3 8.1
2017-Oct-05 11:00N 55°30' E 014°43'5 7.9
2017-Oct-05 10:26N 55°32' E 014°50'4 7.8
2017-Oct-05 09:58N 55°34' E 014°56'7 7.7
2017-Oct-05 09:03N 55°37' E 015°07'6 7.8
2017-Oct-05 08:13N 55°40' E 015°17'2 7.3
2017-Oct-05 08:00N 55°41' E 015°19'4 7.4
2017-Oct-05 07:30N 55°43' E 015°25'3 6.9
2017-Oct-05 07:00N 55°45' E 015°30'3 6.6
2017-Oct-05 06:30N 55°46' E 015°35'3 6.1
2017-Oct-05 06:00N 55°48' E 015°40'3 5.8
2017-Oct-05 05:30N 55°49' E 015°44'3 5.5
2017-Oct-05 05:00N 55°51' E 015°49'3 5.2
2017-Oct-05 04:30N 55°52' E 015°53'  

Dump ship's entire track history